Portada
METAR-TAF:

METAR-TAF

Aeroports :

Midway, Estats Units d'Amèrica

latitud: 28-13N, longitud: 177-22W, altitud: 4 m

Observació

L'informe es va fer fa 49 minuts, a les 07:56 UTC
Vent 11 kt del Sud-Est
Temperatura 26°C
Humitat 79%
Pressió 1020 hPa
Visibilitat: 11.3 km
Cel clar

METAR: PMDY 190756Z AUTO 13011KT 7SM CLR 26/22 A3011 RMK AO2 SLP194 P0001 T02610222

Hora: 22:45 (08:45 UTC)

Pronòstic

L'informe es va fer fa 3 hores i 25 minuts, a les 05:20 UTC
Pronòstic vàlid del 19 a les 06 UTC al 20 a les 06 UTC
Vent 12 kt del Sud-Est
Visibilitat: 8.0 km
Núvols disperses a una alçada de 1500 ft
Cel ennuvolat a una alçada de 4000 ft
calitja, xàfecs en les proximitats

TAF: PMDY 190520Z 1906/2006 14012KT 5SM HZ VCSH SCT015 BKN040

Observacions i pronòstics meteorològics de més de 4000 aeroports (METAR i TAF).

Les estacions disponibles són els punts grocs i vermells al mapa.

Posi el ratolí al punt desitjat per veure el nom de l'estació.

Feu clic per veure les observacions i els pronòstics meteorològics.

Per canviar el mapa: feu clic els botons verds amb una creu de color negre per apropar; al botó verd amb un guió per allunyar la imatge; o en les fletxes verdes per a mapes adjacents.


METAR-TAF: